Time;durP1;ratioP1;P1;durP2;ratioP2;P2;SDS_P1;SDS_P2;PMS_P1;PMS_P2;Temp;Humidity;BMP_temperature;BMP_pressure;BME280_temperature;BME280_humidity;BME280_pressure;Samples;Min_cycle;Max_cycle;Signal;HPM_P1;HPM_P2
2022/08/17 00:07:10;;;;;;;3.00;2.00;;;31.10;45.20;;;;;;20893714;28;20060;-72
2022/08/17 00:17:10;;;;;;;2.30;2.10;;;31.10;45.20;;;;;;20876997;28;20033;-71
2022/08/17 00:27:11;;;;;;;2.45;2.15;;;31.10;45.20;;;;;;20875774;28;20052;-72
2022/08/17 00:37:11;;;;;;;2.50;2.30;;;31.10;45.20;;;;;;20858695;28;20445;-72
2022/08/17 00:47:12;;;;;;;2.40;2.20;;;31.10;45.20;;;;;;20873871;28;20435;-72
2022/08/17 00:57:20;;;;;;;2.85;2.13;;;31.10;45.20;;;;;;20889546;28;20471;-72
2022/08/17 01:07:22;;;;;;;2.90;2.42;;;31.10;45.20;;;;;;20873129;28;20132;-72
2022/08/17 01:17:22;;;;;;;2.55;2.08;;;31.10;45.20;;;;;;21265945;22;20416;-74
2022/08/17 01:27:23;;;;;;;2.50;2.25;;;31.10;45.20;;;;;;20872322;28;20059;-72
2022/08/17 01:37:30;;;;;;;2.47;2.28;;;31.10;45.20;;;;;;20870667;28;20045;-71
2022/08/17 01:47:31;;;;;;;3.20;2.80;;;31.00;45.10;;;;;;20873231;28;20471;-72
2022/08/17 01:57:32;;;;;;;2.92;2.40;;;31.00;45.00;;;;;;20886203;28;20119;-74
2022/08/17 02:07:35;;;;;;;2.90;2.47;;;31.00;45.00;;;;;;20901824;28;20037;-73
2022/08/17 02:17:35;;;;;;;2.50;2.30;;;31.00;45.00;;;;;;20885497;28;20082;-72
2022/08/17 02:27:36;;;;;;;3.28;2.97;;;31.00;45.00;;;;;;20884127;28;20111;-72
2022/08/17 02:37:37;;;;;;;3.22;2.63;;;31.00;45.00;;;;;;20882901;28;20041;-73
2022/08/17 02:47:39;;;;;;;3.40;2.70;;;31.00;45.00;;;;;;20883585;28;20042;-73
2022/08/17 02:57:39;;;;;;;3.50;2.67;;;31.00;44.90;;;;;;20880762;28;20099;-75
2022/08/17 03:07:41;;;;;;;3.20;2.40;;;31.10;45.00;;;;;;20881292;28;20475;-74
2022/08/17 03:17:41;;;;;;;3.13;2.83;;;31.00;44.80;;;;;;20880990;28;20042;-71
2022/08/17 03:27:42;;;;;;;3.58;2.83;;;31.00;44.80;;;;;;20895780;28;20036;-75
2022/08/17 03:37:43;;;;;;;3.57;2.80;;;31.00;44.80;;;;;;20895271;28;20580;-73
2022/08/17 03:58:03;;;;;;;3.20;2.65;;;31.00;44.70;;;;;;20879542;28;20299;-72
2022/08/17 04:08:03;;;;;;;2.47;2.25;;;31.00;44.70;;;;;;20860068;28;20029;-73
2022/08/17 04:18:04;;;;;;;3.53;2.80;;;31.00;44.70;;;;;;20875580;28;20051;-73
2022/08/17 04:28:05;;;;;;;3.13;2.70;;;31.00;44.60;;;;;;20874949;28;20425;-72
2022/08/17 04:38:06;;;;;;;2.92;2.58;;;31.00;44.60;;;;;;20874041;28;20438;-72
2022/08/17 04:48:06;;;;;;;3.05;2.72;;;31.00;44.50;;;;;;20874291;28;20112;-72
2022/08/17 04:58:07;;;;;;;3.13;2.83;;;31.00;44.50;;;;;;20889040;28;20466;-73
2022/08/17 05:08:08;;;;;;;3.15;2.72;;;31.00;44.50;;;;;;20888554;28;20500;-72
2022/08/17 05:18:09;;;;;;;3.55;3.13;;;31.00;44.40;;;;;;20872789;28;20110;-72
2022/08/17 05:28:10;;;;;;;3.83;3.33;;;31.00;44.40;;;;;;20886626;28;20025;-73
2022/08/17 05:38:11;;;;;;;2.42;2.22;;;31.00;44.30;;;;;;20870362;28;20033;-73
2022/08/17 05:48:11;;;;;;;3.00;2.65;;;31.00;44.30;;;;;;20870357;28;20476;-71
2022/08/17 05:58:47;;;;;;;3.05;2.75;;;31.00;44.30;;;;;;20854185;28;20044;-73
2022/08/17 06:09:09;;;;;;;3.35;3.05;;;31.00;44.30;;;;;;20871143;28;20032;-72
2022/08/17 06:19:37;;;;;;;3.50;3.05;;;31.00;44.30;;;;;;20870945;28;20040;-72
2022/08/17 06:29:44;;;;;;;3.92;3.53;;;31.00;44.40;;;;;;20903480;28;20026;-72
2022/08/17 06:40:26;;;;;;;3.42;3.13;;;31.00;44.30;;;;;;20881683;28;20041;-72
2022/08/17 06:50:46;;;;;;;3.60;3.15;;;31.00;44.40;;;;;;20900032;28;20033;-73
2022/08/17 07:00:47;;;;;;;3.60;2.65;;;31.00;44.40;;;;;;20883003;28;20380;-72
2022/08/17 07:10:51;;;;;;;3.67;3.10;;;31.00;44.40;;;;;;20882588;28;20127;-75
2022/08/17 07:20:54;;;;;;;3.40;3.10;;;31.00;44.50;;;;;;20880552;28;20044;-71
2022/08/17 07:30:55;;;;;;;3.20;2.90;;;31.00;44.40;;;;;;20879257;28;20029;-72
2022/08/17 07:41:03;;;;;;;3.50;2.97;;;31.10;44.40;;;;;;20895334;28;20091;-72
2022/08/17 07:51:18;;;;;;;3.05;2.70;;;31.10;44.60;;;;;;20877490;28;20041;-72
2022/08/17 08:01:18;;;;;;;3.05;2.75;;;31.10;44.30;;;;;;20877078;28;20047;-71
2022/08/17 08:11:33;;;;;;;2.85;2.55;;;31.20;44.30;;;;;;20877151;28;20057;-73
2022/08/17 08:21:50;;;;;;;3.45;2.97;;;31.20;44.20;;;;;;20859244;28;20079;-72
2022/08/17 08:32:06;;;;;;;2.45;2.25;;;31.20;44.30;;;;;;20875475;28;20530;-72
2022/08/17 08:42:35;;;;;;;2.70;2.42;;;31.10;44.30;;;;;;20874164;28;20036;-72
2022/08/17 08:53:13;;;;;;;2.50;2.30;;;31.10;44.30;;;;;;20873851;28;20047;-72
2022/08/17 09:03:37;;;;;;;2.10;1.90;;;31.00;44.30;;;;;;20872419;28;20117;-72
2022/08/17 09:14:00;;;;;;;2.10;1.90;;;31.00;44.30;;;;;;20872591;28;20098;-72
2022/08/17 09:24:15;;;;;;;2.55;2.33;;;31.00;44.30;;;;;;20872067;28;20040;-71
2022/08/17 09:34:18;;;;;;;2.13;1.90;;;31.00;44.30;;;;;;20888461;28;20490;-75
2022/08/17 09:44:39;;;;;;;2.38;2.10;;;31.00;44.30;;;;;;20871108;28;20064;-71
2022/08/17 09:54:40;;;;;;;2.35;2.00;;;31.00;44.30;;;;;;20853909;28;20048;-74
2022/08/17 10:04:51;;;;;;;2.40;2.03;;;31.00;45.10;;;;;;20869457;28;20037;-72
2022/08/17 10:15:12;;;;;;;2.50;2.25;;;31.00;44.40;;;;;;20881455;28;20067;-73
2022/08/17 10:35:43;;;;;;;1.63;1.52;;;30.90;44.30;;;;;;20886566;28;20037;-73
2022/08/17 10:46:01;;;;;;;2.30;1.70;;;31.00;44.40;;;;;;20867718;28;20044;-72
2022/08/17 10:56:11;;;;;;;2.63;1.90;;;31.00;44.30;;;;;;20883868;28;20465;-71
2022/08/17 11:06:34;;;;;;;2.05;1.90;;;30.90;44.30;;;;;;20882484;28;20669;-71
2022/08/17 11:16:38;;;;;;;;;;;30.90;44.20;;;;;;20883105;28;20040;-73
2022/08/17 11:26:46;;;;;;;2.00;1.80;;;30.90;44.20;;;;;;20878931;28;20003;-73
2022/08/17 11:37:35;;;;;;;2.65;1.80;;;31.00;44.10;;;;;;20863739;28;20045;-72
2022/08/17 11:58:24;;;;;;;1.95;1.75;;;31.10;43.90;;;;;;20880431;28;20136;-72
2022/08/17 12:08:26;;;;;;;2.15;1.50;;;31.20;43.80;;;;;;20880384;28;20032;-72
2022/08/17 12:18:29;;;;;;;1.70;1.37;;;31.30;43.70;;;;;;20893121;28;20451;-72
2022/08/17 12:28:32;;;;;;;1.38;1.27;;;31.30;43.50;;;;;;20876318;28;20167;-72
2022/08/17 12:38:34;;;;;;;;;;;31.40;43.40;;;;;;20875798;28;20429;-74
2022/08/17 12:48:35;;;;;;;1.83;1.70;;;31.50;43.20;;;;;;20874250;28;19953;-72
2022/08/17 12:58:42;;;;;;;1.60;1.50;;;31.50;43.10;;;;;;20889460;28;20040;-72
2022/08/17 13:08:46;;;;;;;1.45;1.30;;;31.60;43.00;;;;;;20872798;28;20037;-71
2022/08/17 13:18:47;;;;;;;2.03;1.65;;;31.60;42.90;;;;;;20888666;28;20110;-72
2022/08/17 13:28:48;;;;;;;1.55;1.45;;;31.80;42.90;;;;;;20855293;28;20120;-72
2022/08/17 13:38:50;;;;;;;1.43;1.33;;;31.80;42.80;;;;;;20887188;28;20080;-73
2022/08/17 13:49:04;;;;;;;1.10;1.00;;;31.70;42.70;;;;;;20893262;28;20048;-73
2022/08/17 13:59:10;;;;;;;1.40;1.30;;;31.80;42.80;;;;;;20897438;28;20040;-73
2022/08/17 14:09:10;;;;;;;1.83;1.20;;;31.80;42.70;;;;;;20896160;28;20048;-73
2022/08/17 14:19:11;;;;;;;1.60;1.37;;;31.80;42.70;;;;;;20913370;28;20037;-73
2022/08/17 14:29:13;;;;;;;1.35;1.25;;;31.80;42.90;;;;;;20912619;28;20036;-71
2022/08/17 14:39:13;;;;;;;1.05;0.95;;;31.70;43.00;;;;;;20912294;28;20044;-70
2022/08/17 14:49:14;;;;;;;1.00;0.90;;;31.60;43.10;;;;;;20895311;28;20414;-72
2022/08/17 14:59:15;;;;;;;1.13;1.02;;;31.50;43.20;;;;;;20886134;28;20045;-71
2022/08/17 15:09:16;;;;;;;1.30;1.00;;;31.50;43.40;;;;;;20881102;28;20032;-73
2022/08/17 15:19:17;;;;;;;1.00;0.90;;;31.40;43.50;;;;;;20880603;28;20487;-74
2022/08/17 15:29:17;;;;;;;1.10;1.00;;;31.30;43.60;;;;;;20896343;28;20060;-72
2022/08/17 15:39:18;;;;;;;1.48;1.08;;;31.30;43.70;;;;;;20863987;28;20044;-71
2022/08/17 15:49:18;;;;;;;1.75;0.90;;;31.30;43.70;;;;;;20862354;28;20048;-71
2022/08/17 15:59:19;;;;;;;1.35;1.02;;;31.30;43.70;;;;;;20861221;28;20060;-73
2022/08/17 16:09:20;;;;;;;1.73;1.10;;;31.30;43.70;;;;;;20892716;28;20083;-72
2022/08/17 16:19:20;;;;;;;0.70;0.70;;;31.30;43.70;;;;;;20893884;28;20033;-73
2022/08/17 16:29:21;;;;;;;1.30;1.02;;;31.30;43.70;;;;;;20892182;28;20071;-72
2022/08/17 16:39:23;;;;;;;0.70;0.70;;;31.30;43.60;;;;;;20874752;28;20041;-72
2022/08/17 16:49:24;;;;;;;1.08;0.98;;;31.30;43.60;;;;;;20874008;28;20326;-72
2022/08/17 16:59:25;;;;;;;1.75;1.13;;;31.30;43.70;;;;;;20856742;28;20508;-72
2022/08/17 17:09:27;;;;;;;1.73;1.38;;;31.30;43.70;;;;;;20872463;28;20037;-71
2022/08/17 17:19:48;;;;;;;1.83;1.50;;;31.20;43.70;;;;;;20871317;28;20077;-71
2022/08/17 17:30:10;;;;;;;1.77;1.33;;;31.20;43.70;;;;;;20870793;28;20068;-71
2022/08/17 17:40:37;;;;;;;2.13;1.60;;;31.20;43.80;;;;;;20905014;28;20045;-71
2022/08/17 17:51:00;;;;;;;2.95;1.40;;;31.20;43.90;;;;;;20886815;28;20067;-72
2022/08/17 18:01:28;;;;;;;1.93;1.73;;;31.20;44.00;;;;;;20872815;28;20048;-71
2022/08/17 18:11:41;;;;;;;1.58;1.33;;;31.30;44.10;;;;;;20870061;28;20025;-71
2022/08/17 18:21:44;;;;;;;3.30;1.52;;;31.30;44.20;;;;;;20886419;28;20094;-73
2022/08/17 18:31:45;;;;;;;2.22;1.42;;;31.30;44.20;;;;;;20875571;28;20094;-73
2022/08/17 18:41:47;;;;;;;1.73;1.27;;;31.30;44.30;;;;;;20901171;28;20067;-71
2022/08/17 18:51:48;;;;;;;1.60;1.13;;;31.20;44.30;;;;;;20882828;28;20033;-72
2022/08/17 19:02:00;;;;;;;1.80;1.27;;;31.20;44.30;;;;;;20882921;28;20047;-74
2022/08/17 19:12:01;;;;;;;1.75;1.33;;;31.20;44.50;;;;;;20881512;28;20029;-71
2022/08/17 19:22:22;;;;;;;1.55;1.45;;;31.20;44.60;;;;;;20880513;28;20463;-72
2022/08/17 19:32:30;;;;;;;2.10;1.50;;;31.20;44.60;;;;;;20880158;28;20060;-71
2022/08/17 19:42:46;;;;;;;2.85;1.50;;;31.10;44.60;;;;;;20878559;28;20041;-72
2022/08/17 19:53:03;;;;;;;3.78;1.60;;;31.10;44.70;;;;;;20878658;28;20033;-72
2022/08/17 20:03:09;;;;;;;2.33;1.45;;;31.10;44.80;;;;;;20877420;28;20128;-71
2022/08/17 20:13:15;;;;;;;1.73;1.40;;;31.10;44.80;;;;;;20876517;28;20518;-72
2022/08/17 20:23:56;;;;;;;2.15;1.50;;;31.10;44.90;;;;;;20875881;28;20041;-72
2022/08/17 20:34:22;;;;;;;1.92;1.38;;;31.10;45.00;;;;;;20876286;28;20372;-72
2022/08/17 20:44:34;;;;;;;2.20;1.58;;;31.10;45.00;;;;;;20894424;28;20467;-71
2022/08/17 20:54:51;;;;;;;3.28;1.85;;;31.10;45.00;;;;;;20857649;28;20048;-72
2022/08/17 21:04:53;;;;;;;5.03;1.55;;;31.10;45.10;;;;;;20874108;28;20033;-74
2022/08/17 21:15:02;;;;;;;1.90;1.58;;;31.10;45.10;;;;;;20888269;28;20059;-71
2022/08/17 21:25:10;;;;;;;2.65;2.05;;;31.10;45.10;;;;;;20870933;28;20033;-72
2022/08/17 21:35:22;;;;;;;1.60;1.40;;;31.10;45.20;;;;;;20888150;28;20071;-73
2022/08/17 21:45:26;;;;;;;1.83;1.63;;;31.10;45.20;;;;;;20854708;28;20065;-71
2022/08/17 21:55:27;;;;;;;3.17;1.92;;;31.10;45.30;;;;;;20906116;28;20528;-71
2022/08/17 22:05:36;;;;;;;3.35;2.13;;;31.10;45.30;;;;;;20875262;28;20025;-71
2022/08/17 22:15:37;;;;;;;2.15;1.95;;;31.10;45.40;;;;;;20885718;28;20052;-72
2022/08/17 22:25:39;;;;;;;3.10;2.15;;;31.10;45.40;;;;;;20885360;28;20047;-71
2022/08/17 22:35:41;;;;;;;1.93;1.73;;;31.00;45.40;;;;;;20868491;28;20044;-71
2022/08/17 22:45:44;;;;;;;3.78;2.65;;;31.00;45.40;;;;;;20883853;28;20567;-71
2022/08/17 23:06:11;;;;;;;2.67;1.88;;;31.00;45.50;;;;;;20901128;28;20029;-72
2022/08/17 23:16:13;;;;;;;2.90;2.17;;;31.00;45.50;;;;;;20880822;28;20043;-71
2022/08/17 23:26:16;;;;;;;4.30;2.23;;;31.10;45.60;;;;;;20880405;28;20048;-72
2022/08/17 23:36:17;;;;;;;2.40;2.20;;;31.00;45.50;;;;;;20896005;28;20045;-73
2022/08/17 23:46:18;;;;;;;2.78;2.30;;;31.00;45.50;;;;;;20878362;28;20025;-71
2022/08/17 23:56:24;;;;;;;3.53;2.33;;;31.00;45.50;;;;;;20895732;28;20368;-72
